EWG90Y EDDH-LGKO
Flight info
| Callsign | EWG90Y |
|---|---|
| Flight time | N/A |
| Altitude | 37000 |
| Route | AMLUH2G/33 AMLUH M852 DENIX DCT ZUCKA DCT SODRO DCT RUDNO DCT LAMSI DCT PETOV DCT IRDIV DCT REMSO DCT MEDUX UM867 KOGAT DCT ERANA DCT TSL DCT MES UN139 LURUS L995 KOPAR |
| Aircraft | A320/M-SDE3FGHIRWY/LB1 |
Departure
| Time | 2026-04-30 20:02 |
|---|---|
| Airport | Hamburg Helmut Schmidt Airport (EDDH) |
Arrival
| Time | N/A |
|---|---|
| Airport | Kos International Airport "Ippokratis" (LGKO) |
| Time | Latitude | Longitude | Altitude | Speed | Heading |
|---|---|---|---|---|---|
| 2026-04-30 19:06 | 53.62775 | 10.00278 | 49 ft | 0 kts | 63° |
| 2026-04-30 19:48 | 53.62767 | 10.00252 | 48 ft | 4 kts | 65° |
| 2026-04-30 19:48 | 53.62757 | 10.00211 | 47 ft | 4 kts | 73° |
| 2026-04-30 19:49 | 53.62753 | 10.00168 | 46 ft | 4 kts | 104° |
| 2026-04-30 19:49 | 53.62759 | 10.00145 | 45 ft | 0 kts | 153° |
| 2026-04-30 19:52 | 53.62743 | 10.00159 | 45 ft | 11 kts | 153° |
| 2026-04-30 19:53 | 53.62670 | 10.00222 | 48 ft | 11 kts | 153° |
| 2026-04-30 19:53 | 53.62613 | 10.00268 | 47 ft | 7 kts | 161° |
| 2026-04-30 19:53 | 53.62593 | 10.00259 | 48 ft | 0 kts | 211° |
| 2026-04-30 19:54 | 53.62589 | 10.00255 | 48 ft | 5 kts | 213° |
| 2026-04-30 19:54 | 53.62572 | 10.00217 | 48 ft | 2 kts | 246° |
| 2026-04-30 19:54 | 53.62570 | 10.00207 | 48 ft | 0 kts | 248° |
| 2026-04-30 19:59 | 53.62544 | 10.00099 | 45 ft | 6 kts | 248° |
| 2026-04-30 20:00 | 53.62538 | 10.00040 | 47 ft | 4 kts | 288° |
| 2026-04-30 20:00 | 53.62559 | 10.00010 | 47 ft | 4 kts | 330° |
| 2026-04-30 20:00 | 53.62576 | 9.99995 | 46 ft | 0 kts | 332° |
| 2026-04-30 20:01 | 53.62607 | 9.99968 | 47 ft | 26 kts | 333° |
| 2026-04-30 20:01 | 53.63008 | 9.99629 | 45 ft | 99 kts | 333° |
| 2026-04-30 20:02 | 53.64832 | 9.98070 | 374 ft | 169 kts | 335° |
| 2026-04-30 20:02 | 53.65879 | 9.97168 | 1042 ft | 170 kts | 334° |
| 2026-04-30 20:03 | 53.68117 | 9.95241 | 1741 ft | 199 kts | 336° |
| 2026-04-30 20:03 | 53.69507 | 9.94661 | 1930 ft | 213 kts | 360° |
| 2026-04-30 20:03 | 53.70495 | 9.94672 | 2171 ft | 216 kts | 2° |
| 2026-04-30 20:03 | 53.72497 | 9.95060 | 2882 ft | 218 kts | 25° |
| 2026-04-30 20:04 | 53.73350 | 9.95936 | 3258 ft | 217 kts | 44° |
| 2026-04-30 20:04 | 53.74195 | 9.98010 | 3807 ft | 216 kts | 72° |
| 2026-04-30 20:04 | 53.74363 | 10.00513 | 4356 ft | 216 kts | 92° |
| 2026-04-30 20:05 | 53.73625 | 10.05402 | 5287 ft | 229 kts | 118° |
| 2026-04-30 20:05 | 53.72802 | 10.07847 | 5408 ft | 249 kts | 118° |
| 2026-04-30 20:05 | 53.71030 | 10.13100 | 6268 ft | 261 kts | 118° |
| 2026-04-30 20:06 | 53.70135 | 10.15766 | 6781 ft | 262 kts | 117° |
| 2026-04-30 20:06 | 53.69163 | 10.18380 | 7246 ft | 265 kts | 127° |
| 2026-04-30 20:06 | 53.67771 | 10.20454 | 7678 ft | 272 kts | 146° |
| 2026-04-30 20:06 | 53.66010 | 10.21702 | 8105 ft | 278 kts | 162° |
| 2026-04-30 20:07 | 53.64132 | 10.22545 | 8536 ft | 281 kts | 162° |
| 2026-04-30 20:07 | 53.62240 | 10.23404 | 8962 ft | 283 kts | 161° |
| 2026-04-30 20:07 | 53.58411 | 10.25140 | 9825 ft | 288 kts | 162° |
| 2026-04-30 20:08 | 53.56450 | 10.25903 | 10248 ft | 290 kts | 164° |
| 2026-04-30 20:08 | 53.54464 | 10.26600 | 10582 ft | 294 kts | 165° |
| 2026-04-30 20:08 | 53.52418 | 10.27289 | 10712 ft | 306 kts | 165° |
| 2026-04-30 20:08 | 53.50302 | 10.28001 | 10833 ft | 314 kts | 165° |
| 2026-04-30 20:09 | 53.48129 | 10.28742 | 10959 ft | 322 kts | 165° |
| 2026-04-30 20:09 | 53.45913 | 10.29509 | 11091 ft | 328 kts | 165° |
| 2026-04-30 20:09 | 53.41419 | 10.31077 | 11541 ft | 331 kts | 165° |
| 2026-04-30 20:10 | 53.37037 | 10.32596 | 12914 ft | 301 kts | 164° |
| 2026-04-30 20:10 | 53.35063 | 10.33275 | 13883 ft | 281 kts | 163° |
| 2026-04-30 20:10 | 53.33170 | 10.33932 | 14447 ft | 276 kts | 163° |
| 2026-04-30 20:11 | 53.29289 | 10.35318 | 15088 ft | 304 kts | 163° |
| 2026-04-30 20:11 | 53.27146 | 10.36088 | 15207 ft | 326 kts | 164° |
| 2026-04-30 20:11 | 53.24855 | 10.36900 | 15342 ft | 347 kts | 164° |
| 2026-04-30 20:12 | 53.19899 | 10.38614 | 15850 ft | 376 kts | 165° |
| 2026-04-30 20:12 | 53.17320 | 10.39497 | 16388 ft | 380 kts | 165° |
| 2026-04-30 20:12 | 53.14713 | 10.40390 | 16936 ft | 385 kts | 165° |
| 2026-04-30 20:13 | 53.12078 | 10.41296 | 17496 ft | 388 kts | 165° |
| 2026-04-30 20:13 | 53.09417 | 10.42216 | 18044 ft | 393 kts | 165° |
| 2026-04-30 20:13 | 53.06730 | 10.43142 | 18589 ft | 396 kts | 165° |
| 2026-04-30 20:13 | 53.04014 | 10.44076 | 19068 ft | 400 kts | 165° |
| 2026-04-30 20:14 | 53.01276 | 10.45018 | 19545 ft | 403 kts | 165° |
| 2026-04-30 20:14 | 52.98481 | 10.45977 | 20018 ft | 406 kts | 165° |
| 2026-04-30 20:14 | 52.95701 | 10.46931 | 20470 ft | 410 kts | 165° |
| 2026-04-30 20:14 | 52.92900 | 10.47888 | 20943 ft | 413 kts | 165° |
| 2026-04-30 20:15 | 52.90078 | 10.48853 | 21405 ft | 416 kts | 165° |
| 2026-04-30 20:15 | 52.87232 | 10.49826 | 21852 ft | 419 kts | 165° |
| 2026-04-30 20:15 | 52.84367 | 10.50805 | 22292 ft | 422 kts | 165° |
| 2026-04-30 20:15 | 52.81481 | 10.51787 | 22720 ft | 425 kts | 165° |
| 2026-04-30 20:16 | 52.78571 | 10.52775 | 23146 ft | 428 kts | 165° |
| 2026-04-30 20:16 | 52.75643 | 10.53768 | 23561 ft | 432 kts | 165° |
| 2026-04-30 20:16 | 52.72687 | 10.54772 | 23974 ft | 435 kts | 165° |
| 2026-04-30 20:16 | 52.69717 | 10.55783 | 24327 ft | 437 kts | 165° |
| 2026-04-30 20:17 | 52.66727 | 10.56801 | 24680 ft | 440 kts | 165° |
| 2026-04-30 20:17 | 52.63720 | 10.57817 | 25031 ft | 442 kts | 165° |
| 2026-04-30 20:17 | 52.60698 | 10.58834 | 25380 ft | 444 kts | 165° |
| 2026-04-30 20:17 | 52.57662 | 10.59857 | 25718 ft | 447 kts | 165° |
| 2026-04-30 20:18 | 52.54608 | 10.60887 | 26051 ft | 449 kts | 165° |
| 2026-04-30 20:18 | 52.51544 | 10.61921 | 26390 ft | 451 kts | 165° |
| 2026-04-30 20:18 | 52.48463 | 10.62962 | 26721 ft | 453 kts | 165° |
| 2026-04-30 20:18 | 52.45368 | 10.64001 | 27053 ft | 455 kts | 166° |
| 2026-04-30 20:19 | 52.42256 | 10.65041 | 27370 ft | 457 kts | 166° |
| 2026-04-30 20:19 | 52.39130 | 10.66084 | 27702 ft | 459 kts | 166° |
| 2026-04-30 20:19 | 52.35990 | 10.67129 | 28026 ft | 462 kts | 166° |
| 2026-04-30 20:19 | 52.32832 | 10.68178 | 28337 ft | 464 kts | 166° |
| 2026-04-30 20:20 | 52.29666 | 10.69231 | 28640 ft | 466 kts | 166° |
| 2026-04-30 20:20 | 52.26489 | 10.70286 | 28937 ft | 468 kts | 166° |
| 2026-04-30 20:20 | 52.23287 | 10.71346 | 29225 ft | 470 kts | 166° |
| 2026-04-30 20:20 | 52.20080 | 10.72404 | 29495 ft | 471 kts | 166° |
| 2026-04-30 20:21 | 52.16858 | 10.73467 | 29779 ft | 473 kts | 166° |
| 2026-04-30 20:21 | 52.13623 | 10.74541 | 30050 ft | 475 kts | 166° |
| 2026-04-30 20:21 | 52.10382 | 10.75619 | 30329 ft | 477 kts | 166° |
| 2026-04-30 20:21 | 52.07122 | 10.76705 | 30588 ft | 479 kts | 166° |
| 2026-04-30 20:22 | 52.03861 | 10.77783 | 30917 ft | 478 kts | 166° |
| 2026-04-30 20:22 | 52.00611 | 10.78847 | 31260 ft | 476 kts | 166° |
| 2026-04-30 20:22 | 51.97360 | 10.79903 | 31593 ft | 475 kts | 166° |
| 2026-04-30 20:22 | 51.94121 | 10.80955 | 31926 ft | 475 kts | 166° |
| 2026-04-30 20:23 | 51.90886 | 10.82007 | 32261 ft | 474 kts | 166° |
| 2026-04-30 20:23 | 51.87663 | 10.83057 | 32598 ft | 473 kts | 166° |
| 2026-04-30 20:23 | 51.84440 | 10.84111 | 32929 ft | 472 kts | 166° |
| 2026-04-30 20:23 | 51.81226 | 10.85156 | 33271 ft | 471 kts | 166° |
| 2026-04-30 20:24 | 51.78017 | 10.86201 | 33587 ft | 470 kts | 166° |
| 2026-04-30 20:24 | 51.74816 | 10.87246 | 33900 ft | 469 kts | 166° |
| 2026-04-30 20:24 | 51.71616 | 10.88289 | 34219 ft | 469 kts | 166° |
| 2026-04-30 20:24 | 51.68440 | 10.89445 | 34524 ft | 466 kts | 161° |
| 2026-04-30 20:25 | 51.62522 | 10.93502 | 35034 ft | 461 kts | 150° |
| 2026-04-30 20:25 | 51.59643 | 10.95779 | 35286 ft | 461 kts | 150° |
| 2026-04-30 20:26 | 51.53888 | 11.00313 | 35767 ft | 460 kts | 150° |
| 2026-04-30 20:26 | 51.48132 | 11.04828 | 36227 ft | 460 kts | 150° |
| 2026-04-30 20:26 | 51.45258 | 11.07080 | 36432 ft | 460 kts | 150° |
| 2026-04-30 20:27 | 51.39514 | 11.11586 | 36849 ft | 460 kts | 150° |
| 2026-04-30 20:27 | 51.33771 | 11.16074 | 37243 ft | 459 kts | 150° |
| 2026-04-30 20:28 | 51.28020 | 11.20550 | 37446 ft | 460 kts | 150° |
| 2026-04-30 20:28 | 51.22262 | 11.25013 | 37440 ft | 460 kts | 150° |
| 2026-04-30 20:30 | 51.07853 | 11.36156 | 37442 ft | 461 kts | 149° |
| 2026-04-30 20:31 | 50.90502 | 11.49438 | 37446 ft | 462 kts | 149° |
| 2026-04-30 20:32 | 50.76014 | 11.60484 | 37448 ft | 463 kts | 149° |
| 2026-04-30 20:33 | 50.67294 | 11.67070 | 37456 ft | 463 kts | 149° |
| 2026-04-30 20:34 | 50.58573 | 11.73632 | 37453 ft | 463 kts | 149° |
| 2026-04-30 20:35 | 50.49851 | 11.80191 | 37449 ft | 464 kts | 149° |
| 2026-04-30 20:35 | 50.41020 | 11.86470 | 37443 ft | 466 kts | 152° |
| 2026-04-30 20:36 | 50.34995 | 11.90255 | 37442 ft | 467 kts | 153° |
| 2026-04-30 20:37 | 50.25953 | 11.95927 | 37442 ft | 467 kts | 152° |
| 2026-04-30 20:37 | 50.19952 | 11.99799 | 37441 ft | 467 kts | 152° |
| 2026-04-30 20:38 | 50.13951 | 12.03672 | 37444 ft | 467 kts | 152° |
| 2026-04-30 20:38 | 50.07944 | 12.07521 | 37444 ft | 467 kts | 152° |
| 2026-04-30 20:39 | 49.98911 | 12.13253 | 37461 ft | 468 kts | 152° |
| 2026-04-30 20:40 | 49.89862 | 12.18974 | 37451 ft | 468 kts | 152° |
| 2026-04-30 20:40 | 49.83824 | 12.22790 | 37456 ft | 469 kts | 152° |
| 2026-04-30 20:41 | 49.74751 | 12.28511 | 37465 ft | 470 kts | 152° |
| 2026-04-30 20:41 | 49.68691 | 12.32312 | 37468 ft | 470 kts | 152° |
| 2026-04-30 20:42 | 49.62623 | 12.36116 | 37461 ft | 471 kts | 152° |
| 2026-04-30 20:43 | 49.54535 | 12.41160 | 37452 ft | 471 kts | 152° |
| 2026-04-30 20:43 | 49.48454 | 12.44931 | 37441 ft | 471 kts | 152° |
| 2026-04-30 20:44 | 49.39320 | 12.50590 | 37438 ft | 472 kts | 152° |
| 2026-04-30 20:44 | 49.33535 | 12.55081 | 37437 ft | 460 kts | 138° |
| 2026-04-30 20:45 | 49.28849 | 12.61519 | 37432 ft | 450 kts | 127° |
| 2026-04-30 20:45 | 49.24454 | 12.68360 | 37428 ft | 451 kts | 127° |
| 2026-04-30 20:46 | 49.15604 | 12.81996 | 37439 ft | 452 kts | 127° |
| 2026-04-30 20:47 | 49.08960 | 12.92243 | 37440 ft | 453 kts | 127° |
| 2026-04-30 20:48 | 49.02282 | 13.02465 | 37443 ft | 454 kts | 127° |
| 2026-04-30 20:48 | 48.97823 | 13.09272 | 37449 ft | 454 kts | 127° |
| 2026-04-30 20:49 | 48.93354 | 13.16079 | 37451 ft | 454 kts | 127° |
| 2026-04-30 20:50 | 48.86649 | 13.26258 | 37444 ft | 454 kts | 127° |
| 2026-04-30 20:50 | 48.82168 | 13.33028 | 37443 ft | 455 kts | 127° |
| 2026-04-30 20:51 | 48.77685 | 13.39799 | 37448 ft | 455 kts | 127° |
| 2026-04-30 20:51 | 48.70949 | 13.49916 | 37443 ft | 455 kts | 127° |
| 2026-04-30 20:52 | 48.66417 | 13.56707 | 37439 ft | 456 kts | 128° |
| 2026-04-30 20:53 | 48.58700 | 13.65476 | 37437 ft | 465 kts | 137° |
| 2026-04-30 20:53 | 48.53427 | 13.71136 | 37434 ft | 465 kts | 137° |
| 2026-04-30 20:54 | 48.45554 | 13.79572 | 37434 ft | 466 kts | 137° |
| 2026-04-30 20:55 | 48.37594 | 13.88080 | 37439 ft | 466 kts | 137° |
| 2026-04-30 20:55 | 48.32306 | 13.93696 | 37441 ft | 465 kts | 137° |
| 2026-04-30 20:56 | 48.24381 | 14.02096 | 37439 ft | 465 kts | 138° |
| 2026-04-30 20:57 | 48.16457 | 14.10476 | 37436 ft | 464 kts | 138° |
| 2026-04-30 20:57 | 48.11171 | 14.16030 | 37436 ft | 464 kts | 138° |
| 2026-04-30 20:58 | 48.03243 | 14.24335 | 37436 ft | 464 kts | 138° |
| 2026-04-30 20:58 | 47.97958 | 14.29869 | 37441 ft | 463 kts | 139° |
| 2026-04-30 20:59 | 47.90034 | 14.38135 | 37448 ft | 464 kts | 139° |
| 2026-04-30 21:00 | 47.79453 | 14.49120 | 37440 ft | 464 kts | 139° |
| 2026-04-30 21:01 | 47.71503 | 14.57318 | 37449 ft | 464 kts | 139° |
| 2026-04-30 21:02 | 47.63548 | 14.65512 | 37455 ft | 464 kts | 140° |
| 2026-04-30 21:02 | 47.58250 | 14.70954 | 37442 ft | 464 kts | 140° |
| 2026-04-30 21:03 | 47.52936 | 14.76397 | 37445 ft | 465 kts | 140° |
| 2026-04-30 21:03 | 47.47613 | 14.81818 | 37443 ft | 464 kts | 140° |
| 2026-04-30 21:04 | 47.42293 | 14.87235 | 37442 ft | 464 kts | 140° |
| 2026-04-30 21:04 | 47.34321 | 14.95341 | 37445 ft | 464 kts | 140° |
| 2026-04-30 21:05 | 47.28999 | 15.00731 | 37436 ft | 464 kts | 140° |
| 2026-04-30 21:05 | 47.23667 | 15.06110 | 37434 ft | 465 kts | 141° |
| 2026-04-30 21:06 | 47.18334 | 15.11486 | 37436 ft | 465 kts | 141° |
| 2026-04-30 21:06 | 47.12988 | 15.16859 | 37422 ft | 465 kts | 141° |
| 2026-04-30 21:07 | 47.07640 | 15.22224 | 37421 ft | 466 kts | 141° |
| 2026-04-30 21:07 | 47.02276 | 15.27581 | 37418 ft | 467 kts | 141° |
| 2026-04-30 21:08 | 46.96896 | 15.32924 | 37420 ft | 467 kts | 141° |
| 2026-04-30 21:08 | 46.91517 | 15.38283 | 37408 ft | 468 kts | 142° |
| 2026-04-30 21:09 | 46.86198 | 15.43562 | 37418 ft | 468 kts | 142° |
| 2026-04-30 21:09 | 46.80727 | 15.48966 | 37426 ft | 469 kts | 142° |
| 2026-04-30 21:10 | 46.75324 | 15.54315 | 37426 ft | 470 kts | 142° |
| 2026-04-30 21:10 | 46.69910 | 15.59648 | 37419 ft | 470 kts | 142° |
| 2026-04-30 21:11 | 46.64491 | 15.64968 | 37419 ft | 470 kts | 142° |
| 2026-04-30 21:11 | 46.59069 | 15.70277 | 37412 ft | 470 kts | 143° |
| 2026-04-30 21:12 | 46.53638 | 15.75579 | 37412 ft | 470 kts | 143° |
| 2026-04-30 21:12 | 46.48202 | 15.80881 | 37412 ft | 471 kts | 143° |
| 2026-04-30 21:13 | 46.42760 | 15.86182 | 37414 ft | 471 kts | 143° |
| 2026-04-30 21:13 | 46.37314 | 15.91474 | 37414 ft | 472 kts | 143° |
| 2026-04-30 21:14 | 46.31859 | 15.96766 | 37417 ft | 472 kts | 144° |
| 2026-04-30 21:14 | 46.26372 | 16.01992 | 37416 ft | 472 kts | 144° |
| 2026-04-30 21:15 | 46.20841 | 16.07112 | 37419 ft | 473 kts | 145° |
| 2026-04-30 21:15 | 46.15302 | 16.12217 | 37414 ft | 473 kts | 145° |
| 2026-04-30 21:16 | 46.09767 | 16.17344 | 37411 ft | 473 kts | 145° |
| 2026-04-30 21:16 | 46.04235 | 16.22479 | 37410 ft | 473 kts | 145° |
| 2026-04-30 21:17 | 45.98697 | 16.27606 | 37412 ft | 474 kts | 145° |
| 2026-04-30 21:17 | 45.93142 | 16.32723 | 37412 ft | 474 kts | 146° |
| 2026-04-30 21:18 | 45.87584 | 16.37828 | 37412 ft | 475 kts | 146° |
| 2026-04-30 21:18 | 45.82017 | 16.42930 | 37414 ft | 475 kts | 146° |
| 2026-04-30 21:19 | 45.76444 | 16.48024 | 37408 ft | 475 kts | 146° |
| 2026-04-30 21:19 | 45.70875 | 16.53126 | 37399 ft | 475 kts | 146° |
| 2026-04-30 21:20 | 45.65298 | 16.58211 | 37399 ft | 476 kts | 146° |
| 2026-04-30 21:20 | 45.59708 | 16.63281 | 37393 ft | 476 kts | 146° |
| 2026-04-30 21:21 | 45.54113 | 16.68340 | 37389 ft | 476 kts | 146° |
| 2026-04-30 21:22 | 45.45717 | 16.75938 | 37385 ft | 477 kts | 146° |
| 2026-04-30 21:23 | 45.35445 | 16.85168 | 37383 ft | 477 kts | 147° |
| 2026-04-30 21:23 | 45.27016 | 16.92723 | 37383 ft | 478 kts | 147° |
| 2026-04-30 21:24 | 45.21392 | 16.97760 | 37379 ft | 478 kts | 147° |
| 2026-04-30 21:24 | 45.15756 | 17.02779 | 37382 ft | 479 kts | 147° |
| 2026-04-30 21:25 | 45.07296 | 17.10301 | 37381 ft | 478 kts | 146° |
| 2026-04-30 21:26 | 44.99590 | 17.19218 | 37378 ft | 477 kts | 139° |
| 2026-04-30 21:27 | 44.91956 | 17.28373 | 37375 ft | 478 kts | 139° |
| 2026-04-30 21:27 | 44.86876 | 17.34442 | 37379 ft | 479 kts | 139° |
| 2026-04-30 21:28 | 44.79247 | 17.43541 | 37379 ft | 479 kts | 139° |
| 2026-04-30 21:29 | 44.71594 | 17.52612 | 37375 ft | 480 kts | 139° |
| 2026-04-30 21:30 | 44.58813 | 17.67716 | 37376 ft | 480 kts | 139° |
| 2026-04-30 21:31 | 44.45997 | 17.82775 | 37375 ft | 481 kts | 140° |
| 2026-04-30 21:32 | 44.38286 | 17.91790 | 37373 ft | 482 kts | 140° |
| 2026-04-30 21:32 | 44.33137 | 17.97786 | 37375 ft | 482 kts | 140° |
| 2026-04-30 21:33 | 44.25405 | 18.06775 | 37370 ft | 482 kts | 140° |
| 2026-04-30 21:34 | 44.20240 | 18.12760 | 37369 ft | 483 kts | 140° |
| 2026-04-30 21:34 | 44.12487 | 18.21728 | 37369 ft | 483 kts | 140° |
| 2026-04-30 21:35 | 44.07306 | 18.27692 | 37363 ft | 483 kts | 141° |
| 2026-04-30 21:35 | 44.02119 | 18.33648 | 37364 ft | 484 kts | 141° |
| 2026-04-30 21:36 | 43.96932 | 18.39597 | 37366 ft | 484 kts | 141° |
| 2026-04-30 21:37 | 43.86540 | 18.51475 | 37363 ft | 484 kts | 141° |
| 2026-04-30 21:37 | 43.81338 | 18.57391 | 37365 ft | 484 kts | 141° |
| 2026-04-30 21:38 | 43.76130 | 18.63304 | 37366 ft | 484 kts | 141° |
| 2026-04-30 21:38 | 43.70923 | 18.69206 | 37369 ft | 484 kts | 141° |
| 2026-04-30 21:39 | 43.65705 | 18.75105 | 37365 ft | 484 kts | 142° |
| 2026-04-30 21:39 | 43.60484 | 18.80989 | 37363 ft | 485 kts | 142° |
| 2026-04-30 21:40 | 43.55264 | 18.86875 | 37360 ft | 485 kts | 142° |
| 2026-04-30 21:40 | 43.50039 | 18.92756 | 37358 ft | 485 kts | 142° |
| 2026-04-30 21:41 | 43.45119 | 18.99108 | 37355 ft | 486 kts | 133° |
| 2026-04-30 21:41 | 43.40528 | 19.05952 | 37353 ft | 487 kts | 134° |
| 2026-04-30 21:42 | 43.35929 | 19.12785 | 37355 ft | 487 kts | 134° |
| 2026-04-30 21:42 | 43.31323 | 19.19617 | 37352 ft | 487 kts | 134° |
| 2026-04-30 21:43 | 43.26710 | 19.26434 | 37350 ft | 488 kts | 134° |
| 2026-04-30 21:43 | 43.22090 | 19.33253 | 37349 ft | 488 kts | 134° |
| 2026-04-30 21:44 | 43.17469 | 19.40073 | 37349 ft | 488 kts | 134° |
| 2026-04-30 21:44 | 43.12830 | 19.46873 | 37350 ft | 489 kts | 134° |
| 2026-04-30 21:45 | 43.08184 | 19.53672 | 37347 ft | 489 kts | 134° |
| 2026-04-30 21:45 | 43.03535 | 19.60465 | 37347 ft | 489 kts | 134° |
| 2026-04-30 21:46 | 42.98881 | 19.67257 | 37349 ft | 489 kts | 134° |
| 2026-04-30 21:46 | 42.94222 | 19.74039 | 37347 ft | 490 kts | 135° |
| 2026-04-30 21:47 | 42.89547 | 19.80814 | 37343 ft | 490 kts | 135° |
| 2026-04-30 21:47 | 42.84870 | 19.87578 | 37340 ft | 490 kts | 135° |
| 2026-04-30 21:48 | 42.80195 | 19.94348 | 37344 ft | 491 kts | 135° |
| 2026-04-30 21:48 | 42.75510 | 20.01100 | 37338 ft | 491 kts | 135° |
| 2026-04-30 21:49 | 42.70977 | 20.08039 | 37327 ft | 491 kts | 131° |
| 2026-04-30 21:49 | 42.66696 | 20.15289 | 37318 ft | 492 kts | 129° |
| 2026-04-30 21:50 | 42.62435 | 20.22557 | 37309 ft | 492 kts | 130° |
| 2026-04-30 21:50 | 42.58101 | 20.29732 | 37302 ft | 491 kts | 131° |
| 2026-04-30 21:51 | 42.53720 | 20.36856 | 37300 ft | 492 kts | 131° |
| 2026-04-30 21:51 | 42.49334 | 20.43985 | 37299 ft | 492 kts | 131° |
| 2026-04-30 21:52 | 42.44960 | 20.51124 | 37293 ft | 492 kts | 131° |
| 2026-04-30 21:52 | 42.40592 | 20.58263 | 37295 ft | 492 kts | 131° |
| 2026-04-30 21:53 | 42.36205 | 20.65376 | 37294 ft | 492 kts | 132° |
| 2026-04-30 21:53 | 42.31818 | 20.72477 | 37296 ft | 492 kts | 132° |
| 2026-04-30 21:54 | 42.27426 | 20.79579 | 37299 ft | 492 kts | 132° |
| 2026-04-30 21:54 | 42.23031 | 20.86652 | 37300 ft | 492 kts | 132° |
| 2026-04-30 21:55 | 42.18637 | 20.93718 | 37300 ft | 491 kts | 132° |
| 2026-04-30 21:55 | 42.14241 | 21.00773 | 37304 ft | 491 kts | 133° |
| 2026-04-30 21:56 | 42.09673 | 21.07570 | 37297 ft | 488 kts | 140° |
| 2026-04-30 21:56 | 42.04731 | 21.13841 | 37296 ft | 489 kts | 140° |
| 2026-04-30 21:57 | 41.99789 | 21.20120 | 37297 ft | 489 kts | 140° |
| 2026-04-30 21:57 | 41.94842 | 21.26396 | 37301 ft | 489 kts | 140° |
| 2026-04-30 21:58 | 41.89890 | 21.32652 | 37298 ft | 489 kts | 140° |
| 2026-04-30 21:58 | 41.84924 | 21.38894 | 37308 ft | 489 kts | 140° |
| 2026-04-30 21:59 | 41.79958 | 21.45131 | 37310 ft | 489 kts | 140° |
| 2026-04-30 22:00 | 41.72510 | 21.54491 | 37293 ft | 490 kts | 141° |
| 2026-04-30 22:00 | 41.65041 | 21.63825 | 37284 ft | 490 kts | 141° |
| 2026-04-30 22:01 | 41.60053 | 21.70037 | 37265 ft | 490 kts | 141° |
| 2026-04-30 22:01 | 41.55903 | 21.75202 | 37268 ft | 491 kts | 141° |
| 2026-04-30 22:02 | 41.50902 | 21.81407 | 37267 ft | 491 kts | 141° |
| 2026-04-30 22:02 | 41.45894 | 21.87599 | 37254 ft | 491 kts | 141° |
| 2026-04-30 22:03 | 41.40888 | 21.93794 | 37259 ft | 492 kts | 141° |
| 2026-04-30 22:03 | 41.35870 | 21.99991 | 37255 ft | 492 kts | 141° |
| 2026-04-30 22:04 | 41.30844 | 22.06176 | 37252 ft | 492 kts | 142° |
| 2026-04-30 22:05 | 41.23291 | 22.15430 | 37238 ft | 492 kts | 142° |
| 2026-04-30 22:05 | 41.18221 | 22.21630 | 37230 ft | 492 kts | 141° |
| 2026-04-30 22:06 | 41.13119 | 22.27658 | 37221 ft | 490 kts | 145° |
| 2026-04-30 22:06 | 41.05134 | 22.36098 | 37231 ft | 489 kts | 147° |
| 2026-04-30 22:07 | 40.99802 | 22.41680 | 37223 ft | 489 kts | 146° |
| 2026-04-30 22:07 | 40.94513 | 22.47353 | 37214 ft | 489 kts | 146° |
| 2026-04-30 22:08 | 40.89237 | 22.53029 | 37214 ft | 489 kts | 146° |
| 2026-04-30 22:08 | 40.83953 | 22.58672 | 37208 ft | 488 kts | 146° |
| 2026-04-30 22:09 | 40.78658 | 22.64292 | 37208 ft | 488 kts | 146° |
| 2026-04-30 22:09 | 40.73364 | 22.69911 | 37200 ft | 488 kts | 146° |
| 2026-04-30 22:10 | 40.68077 | 22.75523 | 37199 ft | 488 kts | 147° |
| 2026-04-30 22:10 | 40.62783 | 22.81109 | 37198 ft | 488 kts | 147° |
| 2026-04-30 22:11 | 40.54845 | 22.89476 | 37187 ft | 487 kts | 147° |
| 2026-04-30 22:12 | 40.49550 | 22.95046 | 37188 ft | 487 kts | 147° |
| 2026-04-30 22:12 | 40.44408 | 23.00859 | 37185 ft | 493 kts | 138° |
| 2026-04-30 22:13 | 40.39704 | 23.07400 | 37187 ft | 493 kts | 138° |
| 2026-04-30 22:13 | 40.34981 | 23.13926 | 37189 ft | 493 kts | 138° |
| 2026-04-30 22:14 | 40.30250 | 23.20446 | 37183 ft | 493 kts | 138° |
| 2026-04-30 22:14 | 40.25521 | 23.26963 | 37178 ft | 494 kts | 138° |
| 2026-04-30 22:15 | 40.20778 | 23.33470 | 37179 ft | 494 kts | 138° |
| 2026-04-30 22:15 | 40.16033 | 23.39968 | 37169 ft | 494 kts | 138° |
| 2026-04-30 22:16 | 40.11288 | 23.46453 | 37173 ft | 493 kts | 138° |
| 2026-04-30 22:17 | 40.01804 | 23.59389 | 37172 ft | 492 kts | 138° |
| 2026-04-30 22:17 | 39.94695 | 23.69042 | 37160 ft | 491 kts | 138° |
| 2026-04-30 22:18 | 39.87594 | 23.78656 | 37158 ft | 490 kts | 138° |
| 2026-04-30 22:19 | 39.80501 | 23.88226 | 37164 ft | 489 kts | 138° |
| 2026-04-30 22:20 | 39.73412 | 23.97769 | 37162 ft | 489 kts | 138° |
| 2026-04-30 22:20 | 39.66323 | 24.07272 | 37155 ft | 488 kts | 138° |
| 2026-04-30 22:21 | 39.61607 | 24.13582 | 37152 ft | 487 kts | 138° |
| 2026-04-30 22:21 | 39.56899 | 24.19873 | 37147 ft | 486 kts | 138° |
| 2026-04-30 22:22 | 39.52186 | 24.26143 | 37141 ft | 485 kts | 138° |
| 2026-04-30 22:22 | 39.47483 | 24.32390 | 37138 ft | 484 kts | 138° |
| 2026-04-30 22:23 | 39.42785 | 24.38622 | 37132 ft | 483 kts | 138° |
| 2026-04-30 22:23 | 39.38086 | 24.44836 | 37122 ft | 483 kts | 138° |
| 2026-04-30 22:24 | 39.33392 | 24.51032 | 37116 ft | 482 kts | 138° |
| 2026-04-30 22:24 | 39.28699 | 24.57211 | 37109 ft | 482 kts | 138° |
| 2026-04-30 22:25 | 39.24015 | 24.63383 | 37103 ft | 481 kts | 138° |
| 2026-04-30 22:25 | 39.19328 | 24.69543 | 37103 ft | 481 kts | 137° |
| 2026-04-30 22:26 | 39.12289 | 24.78750 | 37090 ft | 481 kts | 138° |
| 2026-04-30 22:27 | 39.07594 | 24.84877 | 37081 ft | 480 kts | 137° |
| 2026-04-30 22:27 | 39.00555 | 24.94053 | 37074 ft | 480 kts | 137° |
| 2026-04-30 22:28 | 38.93510 | 25.03202 | 37071 ft | 480 kts | 137° |
| 2026-04-30 22:29 | 38.84119 | 25.15356 | 37066 ft | 479 kts | 138° |
| 2026-04-30 22:31 | 38.67731 | 25.36468 | 37048 ft | 476 kts | 138° |
| 2026-04-30 22:32 | 38.56046 | 25.51403 | 37031 ft | 475 kts | 137° |
| 2026-04-30 22:33 | 38.44337 | 25.66335 | 37025 ft | 475 kts | 137° |
| 2026-04-30 22:35 | 38.32637 | 25.81142 | 37016 ft | 474 kts | 137° |
| 2026-04-30 22:36 | 38.22545 | 25.91636 | 37008 ft | 465 kts | 159° |
| 2026-04-30 22:36 | 38.19554 | 25.93134 | 37001 ft | 461 kts | 164° |
| 2026-04-30 22:37 | 38.07453 | 25.98636 | 36990 ft | 462 kts | 164° |
| 2026-04-30 22:37 | 38.01396 | 26.01402 | 36612 ft | 463 kts | 163° |
| 2026-04-30 22:38 | 37.95342 | 26.04159 | 36090 ft | 462 kts | 163° |
| 2026-04-30 22:38 | 37.89277 | 26.06903 | 35584 ft | 463 kts | 163° |
| 2026-04-30 22:39 | 37.86247 | 26.08275 | 35332 ft | 463 kts | 163° |
| 2026-04-30 22:39 | 37.78097 | 26.11948 | 33223 ft | 474 kts | 163° |
| 2026-04-30 22:40 | 37.68703 | 26.16175 | 30652 ft | 475 kts | 162° |
| 2026-04-30 22:41 | 37.59485 | 26.20329 | 28631 ft | 461 kts | 162° |
| 2026-04-30 22:41 | 37.53511 | 26.23015 | 27373 ft | 451 kts | 162° |
| 2026-04-30 22:42 | 37.41907 | 26.28198 | 24949 ft | 434 kts | 162° |
| 2026-04-30 22:43 | 37.36260 | 26.30708 | 23817 ft | 426 kts | 162° |
| 2026-04-30 22:43 | 37.30729 | 26.33181 | 22703 ft | 416 kts | 162° |
| 2026-04-30 22:44 | 37.25347 | 26.35582 | 21688 ft | 405 kts | 162° |
| 2026-04-30 22:45 | 37.14956 | 26.40180 | 20991 ft | 392 kts | 162° |
| 2026-04-30 22:45 | 37.09808 | 26.42465 | 19884 ft | 397 kts | 162° |
| 2026-04-30 22:46 | 37.04581 | 26.44787 | 18009 ft | 397 kts | 162° |
| 2026-04-30 22:47 | 36.94343 | 26.49313 | 15338 ft | 381 kts | 162° |
| 2026-04-30 22:47 | 36.89715 | 26.52383 | 14284 ft | 380 kts | 138° |
| 2026-04-30 22:48 | 36.86822 | 26.57817 | 13190 ft | 377 kts | 112° |
| 2026-04-30 22:49 | 36.83760 | 26.66725 | 11620 ft | 368 kts | 113° |
| 2026-04-30 22:49 | 36.79208 | 26.74136 | 10513 ft | 346 kts | 131° |
| 2026-04-30 22:50 | 36.73185 | 26.82417 | 9916 ft | 304 kts | 130° |
| 2026-04-30 22:51 | 36.70378 | 26.86271 | 8807 ft | 297 kts | 130° |
| 2026-04-30 22:51 | 36.68238 | 26.90552 | 7511 ft | 289 kts | 114° |
| 2026-04-30 22:52 | 36.67352 | 26.92787 | 6874 ft | 287 kts | 114° |
| 2026-04-30 22:52 | 36.65603 | 26.97181 | 5701 ft | 277 kts | 114° |
| 2026-04-30 22:53 | 36.63936 | 27.01341 | 4788 ft | 260 kts | 115° |
| 2026-04-30 22:53 | 36.62398 | 27.05153 | 4413 ft | 230 kts | 115° |
| 2026-04-30 22:53 | 36.61697 | 27.06896 | 4325 ft | 221 kts | 115° |
| 2026-04-30 22:54 | 36.60406 | 27.10104 | 4156 ft | 193 kts | 115° |
| 2026-04-30 22:55 | 36.59715 | 27.14414 | 3911 ft | 162 kts | 73° |
| 2026-04-30 22:55 | 36.60478 | 27.16959 | 3769 ft | 155 kts | 67° |
| 2026-04-30 22:56 | 36.61535 | 27.19262 | 3649 ft | 153 kts | 36° |
| 2026-04-30 22:56 | 36.64374 | 27.19696 | 3056 ft | 139 kts | 351° |
| 2026-04-30 22:57 | 36.66293 | 27.19239 | 2757 ft | 140 kts | 340° |
| 2026-04-30 22:57 | 36.67996 | 27.18140 | 2742 ft | 138 kts | 328° |
| 2026-04-30 22:58 | 36.69597 | 27.16759 | 2537 ft | 142 kts | 326° |
| 2026-04-30 22:59 | 36.72058 | 27.14815 | 1999 ft | 140 kts | 330° |
| 2026-04-30 22:59 | 36.74499 | 27.12953 | 1439 ft | 135 kts | 332° |